Time;durP1;ratioP1;P1;durP2;ratioP2;P2;SDS_P1;SDS_P2;PMS_P1;PMS_P2;Temp;Humidity;BMP_temperature;BMP_pressure;BME280_temperature;BME280_humidity;BME280_pressure;Samples;Min_cycle;Max_cycle;Signal;HPM_P1;HPM_P2
2022/12/30 00:00:38;;;;;;;7.47;2.42;;;6.30;99.90;;;;;;4954557;28;20057;-64
2022/12/30 00:03:05;;;;;;;12.55;2.55;;;6.30;99.90;;;;;;4953153;28;20054;-63
2022/12/30 00:05:32;;;;;;;4.57;2.90;;;6.30;99.90;;;;;;4953949;28;20082;-64
2022/12/30 00:07:59;;;;;;;10.20;2.58;;;6.20;99.90;;;;;;4958077;28;20528;-63
2022/12/30 00:10:26;;;;;;;6.60;4.25;;;6.20;99.90;;;;;;4956487;28;20142;-63
2022/12/30 00:35:33;;;;;;;8.02;3.15;;;6.10;99.90;;;;;;4897997;29;20076;-64
2022/12/30 00:38:00;;;;;;;3.83;2.53;;;6.10;99.90;;;;;;4943579;28;20055;-62
2022/12/30 00:40:27;;;;;;;5.40;1.98;;;6.00;99.90;;;;;;4957098;28;20074;-63
2022/12/30 00:43:09;;;;;;;7.63;2.05;;;6.10;99.90;;;;;;4955724;28;20092;-63
2022/12/30 00:45:42;;;;;;;9.45;2.88;;;6.10;99.90;;;;;;4956462;28;20055;-63
2022/12/30 00:56:25;;;;;;;10.77;2.80;;;6.00;99.90;;;;;;4959515;28;20048;-63
2022/12/30 00:58:52;;;;;;;15.25;5.20;;;6.10;99.90;;;;;;4950869;28;20055;-62
2022/12/30 01:01:19;;;;;;;9.35;3.03;;;6.10;99.90;;;;;;4959027;28;20054;-63
2022/12/30 01:03:46;;;;;;;30.65;4.65;;;6.10;99.90;;;;;;4955384;28;20054;-63
2022/12/30 01:06:12;;;;;;;10.60;2.83;;;6.10;99.90;;;;;;4958138;28;20046;-62
2022/12/30 01:08:39;;;;;;;10.70;3.65;;;6.00;99.90;;;;;;4956494;28;20058;-63
2022/12/30 01:11:08;;;;;;;13.30;3.03;;;6.00;99.90;;;;;;4958423;28;20062;-64
2022/12/30 01:13:36;;;;;;;8.73;3.08;;;6.00;99.90;;;;;;4960812;28;20065;-64
2022/12/30 01:16:14;;;;;;;7.57;2.88;;;6.00;99.90;;;;;;4963375;28;20058;-63
2022/12/30 01:18:42;;;;;;;10.80;2.60;;;6.00;99.90;;;;;;4960549;28;20065;-63
2022/12/30 01:21:09;;;;;;;9.77;3.15;;;5.90;99.90;;;;;;4956857;28;20049;-62
2022/12/30 01:23:36;;;;;;;7.03;2.30;;;5.90;99.90;;;;;;4958804;28;20060;-63
2022/12/30 01:26:05;;;;;;;8.73;3.58;;;5.90;99.90;;;;;;4954854;28;20043;-63
2022/12/30 01:28:36;;;;;;;8.45;2.88;;;5.90;99.90;;;;;;4953972;28;20043;-62
2022/12/30 01:31:08;;;;;;;6.85;3.40;;;5.90;99.90;;;;;;4958517;28;20612;-65
2022/12/30 01:33:35;;;;;;;12.43;3.70;;;5.90;99.90;;;;;;4961116;28;20043;-64
2022/12/30 01:36:04;;;;;;;12.25;3.42;;;5.90;99.90;;;;;;4955896;28;20043;-62
2022/12/30 01:38:31;;;;;;;10.73;2.72;;;5.90;99.90;;;;;;4956532;28;20054;-63
2022/12/30 01:40:59;;;;;;;6.70;2.35;;;5.90;99.90;;;;;;4952171;28;20070;-62
2022/12/30 01:43:44;;;;;;;11.77;4.22;;;5.80;99.90;;;;;;4959777;28;20138;-64
2022/12/30 01:46:22;;;;;;;14.40;3.88;;;5.80;99.90;;;;;;4958314;28;20102;-63
2022/12/30 01:48:51;;;;;;;9.98;3.15;;;5.80;99.90;;;;;;4958038;28;20063;-63
2022/12/30 01:51:23;;;;;;;12.73;3.83;;;5.80;99.90;;;;;;4958650;28;20133;-64
2022/12/30 01:53:51;;;;;;;12.25;4.38;;;5.80;99.90;;;;;;4957695;28;20077;-62
2022/12/30 01:56:23;;;;;;;13.95;3.40;;;5.80;99.90;;;;;;4955184;28;20519;-62
2022/12/30 01:59:03;;;;;;;9.40;4.82;;;5.80;99.90;;;;;;4955374;28;23247;-63
2022/12/30 02:01:31;;;;;;;;;;;5.80;99.90;;;;;;4959505;28;20311;-63
2022/12/30 02:04:02;;;;;;;15.63;4.00;;;5.80;99.90;;;;;;4959180;28;19922;-63
2022/12/30 02:07:03;;;;;;;19.95;4.80;;;5.80;99.90;;;;;;4956885;28;20047;-62
2022/12/30 02:09:32;;;;;;;21.55;4.53;;;5.80;99.90;;;;;;4956568;28;20054;-62
2022/12/30 02:11:59;;;;;;;15.02;4.18;;;5.80;99.90;;;;;;4956632;28;20047;-62
2022/12/30 02:14:29;;;;;;;13.20;3.40;;;5.80;99.90;;;;;;4954111;28;20062;-63
2022/12/30 02:17:33;;;;;;;7.65;2.95;;;5.80;99.90;;;;;;4951388;28;20059;-62
2022/12/30 02:20:21;;;;;;;14.80;4.25;;;5.80;99.90;;;;;;4947625;28;20501;-62
2022/12/30 02:23:16;;;;;;;19.15;7.03;;;5.80;99.90;;;;;;4956412;28;20134;-61
2022/12/30 02:25:52;;;;;;;21.90;5.05;;;5.80;99.90;;;;;;4961076;28;20047;-63
2022/12/30 02:28:22;;;;;;;22.25;4.72;;;5.80;99.90;;;;;;4956459;28;20051;-62
2022/12/30 02:31:13;;;;;;;16.83;5.28;;;5.70;99.90;;;;;;4958201;28;20109;-62
2022/12/30 02:34:12;;;;;;;19.33;5.57;;;5.70;99.90;;;;;;4955019;28;20481;-62
2022/12/30 02:37:13;;;;;;;21.73;4.25;;;5.70;99.90;;;;;;4931686;28;20163;-62
2022/12/30 02:40:08;;;;;;;20.27;4.22;;;5.70;99.90;;;;;;4960530;28;20054;-63
2022/12/30 02:46:05;;;;;;;13.18;4.35;;;5.70;99.90;;;;;;4941252;28;20219;-63
2022/12/30 02:48:36;;;;;;;23.35;7.20;;;5.60;99.90;;;;;;4960525;28;20047;-62
2022/12/30 02:53:50;;;;;;;18.25;4.22;;;5.60;99.90;;;;;;4959353;28;20114;-62
2022/12/30 02:56:17;;;;;;;16.25;4.13;;;5.70;99.90;;;;;;4957271;28;20090;-62
2022/12/30 03:03:56;;;;;;;16.67;4.72;;;5.70;99.90;;;;;;4957547;28;20038;-62
2022/12/30 03:05:15;;;;;;;22.17;5.32;;;5.70;99.90;;;;;;4957304;28;20078;-62
2022/12/30 03:08:06;;;;;;;16.95;5.60;;;5.70;99.90;;;;;;4954795;28;20125;-62
2022/12/30 03:13:44;;;;;;;17.67;5.88;;;5.70;99.90;;;;;;4960934;28;20099;-62
2022/12/30 03:16:19;;;;;;;22.23;6.55;;;5.80;99.90;;;;;;4954475;28;20067;-64
2022/12/30 03:18:48;;;;;;;14.55;5.47;;;5.70;99.90;;;;;;4956330;28;20089;-62
2022/12/30 03:21:16;;;;;;;22.55;4.35;;;5.70;99.90;;;;;;4956293;28;20158;-63
2022/12/30 03:29:26;;;;;;;20.38;3.53;;;5.80;99.90;;;;;;4953387;28;20133;-63
2022/12/30 03:31:54;;;;;;;17.95;4.72;;;5.80;99.90;;;;;;4951784;28;21095;-62
2022/12/30 03:34:23;;;;;;;15.00;5.63;;;5.80;99.90;;;;;;4951186;28;20050;-62
2022/12/30 03:36:56;;;;;;;22.73;5.88;;;5.80;99.90;;;;;;4951732;28;20057;-61
2022/12/30 03:39:35;;;;;;;15.23;2.95;;;5.80;99.90;;;;;;4956374;28;20049;-62
2022/12/30 03:42:04;;;;;;;12.18;4.40;;;5.80;99.90;;;;;;4948884;28;20099;-63
2022/12/30 03:44:32;;;;;;;18.85;4.55;;;5.80;99.90;;;;;;4951631;28;20061;-63
2022/12/30 03:46:59;;;;;;;16.40;4.80;;;5.70;99.90;;;;;;4957962;28;20417;-62
2022/12/30 03:49:26;;;;;;;9.93;3.65;;;5.70;99.90;;;;;;4951764;28;20054;-63
2022/12/30 03:51:53;;;;;;;19.88;4.10;;;5.70;99.90;;;;;;4959860;28;20133;-62
2022/12/30 03:54:19;;;;;;;14.63;5.45;;;5.70;99.90;;;;;;4956330;28;20047;-63
2022/12/30 03:56:46;;;;;;;17.75;4.80;;;5.70;99.90;;;;;;4953344;28;20058;-63
2022/12/30 03:59:13;;;;;;;18.02;4.82;;;5.70;99.90;;;;;;4956369;28;20039;-63
2022/12/30 04:01:40;;;;;;;21.77;4.47;;;5.70;99.90;;;;;;4956159;28;20055;-62
2022/12/30 04:04:07;;;;;;;17.85;5.28;;;5.70;99.90;;;;;;4957381;28;20054;-62
2022/12/30 04:06:34;;;;;;;17.83;3.78;;;5.70;99.90;;;;;;4957150;28;20078;-63
2022/12/30 04:09:01;;;;;;;9.40;3.67;;;5.70;99.90;;;;;;4957676;28;20129;-62
2022/12/30 04:11:27;;;;;;;15.32;4.18;;;5.60;99.90;;;;;;4956568;28;20559;-62
2022/12/30 04:13:54;;;;;;;14.20;4.55;;;5.60;99.90;;;;;;4953645;28;20055;-62
2022/12/30 04:16:21;;;;;;;13.95;3.80;;;5.60;99.90;;;;;;4956699;28;20051;-63
2022/12/30 04:18:48;;;;;;;33.33;6.20;;;5.60;99.90;;;;;;4955770;28;20178;-62
2022/12/30 04:21:15;;;;;;;12.10;4.38;;;5.60;99.90;;;;;;4952544;28;20055;-62
2022/12/30 04:23:42;;;;;;;9.93;4.30;;;5.60;99.90;;;;;;4956875;28;20081;-62
2022/12/30 04:26:09;;;;;;;15.45;3.65;;;5.60;99.90;;;;;;4958836;28;20370;-62
2022/12/30 04:28:36;;;;;;;14.65;4.35;;;5.50;99.90;;;;;;4953900;28;20149;-63
2022/12/30 04:31:03;;;;;;;10.07;3.78;;;5.50;99.90;;;;;;4960332;28;20047;-62
2022/12/30 04:33:30;;;;;;;13.07;3.90;;;5.50;99.90;;;;;;4959732;28;20042;-62
2022/12/30 04:35:57;;;;;;;22.98;5.65;;;5.50;99.90;;;;;;4950810;28;20052;-62
2022/12/30 04:38:24;;;;;;;11.27;3.95;;;5.50;99.90;;;;;;4956018;28;20055;-62
2022/12/30 04:40:51;;;;;;;13.75;4.20;;;5.50;99.90;;;;;;4961651;28;20051;-63
2022/12/30 04:43:18;;;;;;;14.60;3.20;;;5.40;99.90;;;;;;4959933;28;20061;-62
2022/12/30 04:45:45;;;;;;;22.20;4.43;;;5.50;99.90;;;;;;4963341;28;20130;-62
2022/12/30 04:48:12;;;;;;;14.43;4.55;;;5.50;99.90;;;;;;4958566;28;20470;-63
2022/12/30 04:50:43;;;;;;;15.52;4.70;;;5.60;99.90;;;;;;4958082;28;20141;-62
2022/12/30 04:53:10;;;;;;;19.88;5.57;;;5.60;99.90;;;;;;4950973;28;20063;-61
2022/12/30 04:55:38;;;;;;;12.98;3.80;;;5.60;99.90;;;;;;4957975;28;20079;-62
2022/12/30 04:58:05;;;;;;;12.43;4.65;;;5.70;99.90;;;;;;4962118;28;20505;-62
2022/12/30 05:00:33;;;;;;;18.58;4.35;;;5.70;99.90;;;;;;4956032;28;20141;-62
2022/12/30 05:03:00;;;;;;;15.43;4.78;;;5.70;99.90;;;;;;4962186;28;20043;-63
2022/12/30 05:05:27;;;;;;;10.95;4.72;;;5.70;99.90;;;;;;4960914;28;20070;-63
2022/12/30 05:07:54;;;;;;;16.75;4.13;;;5.70;99.90;;;;;;4960748;28;20047;-62
2022/12/30 05:10:21;;;;;;;29.20;6.45;;;5.70;99.90;;;;;;4958732;28;20054;-62
2022/12/30 05:12:48;;;;;;;18.90;4.53;;;5.70;99.90;;;;;;4957300;28;20057;-62
2022/12/30 05:15:15;;;;;;;26.30;5.40;;;5.70;99.90;;;;;;4955301;28;20580;-62
2022/12/30 05:17:41;;;;;;;22.65;5.28;;;5.70;99.90;;;;;;4958394;28;20421;-62
2022/12/30 05:20:09;;;;;;;7.28;3.72;;;5.80;99.90;;;;;;4959992;28;20137;-64
2022/12/30 05:22:36;;;;;;;13.52;5.10;;;5.70;99.90;;;;;;4953307;28;20130;-62
2022/12/30 05:27:49;;;;;;;12.57;4.00;;;5.70;99.90;;;;;;4957330;28;20169;-62
2022/12/30 05:30:15;;;;;;;15.48;3.58;;;5.60;99.90;;;;;;4960494;28;20409;-62
2022/12/30 05:32:42;;;;;;;7.13;3.53;;;5.60;99.90;;;;;;4957723;28;20520;-62
2022/12/30 05:35:09;;;;;;;13.45;4.75;;;5.60;99.90;;;;;;4956899;28;20061;-62
2022/12/30 05:37:36;;;;;;;13.85;4.30;;;5.60;99.90;;;;;;4957844;28;20051;-62
2022/12/30 05:40:04;;;;;;;18.83;5.28;;;5.50;99.90;;;;;;4960998;28;20674;-62
2022/12/30 05:42:31;;;;;;;14.85;4.63;;;5.60;99.90;;;;;;4961444;28;20145;-63
2022/12/30 05:44:58;;;;;;;9.50;4.80;;;5.60;99.90;;;;;;4962097;28;20483;-63
2022/12/30 05:47:25;;;;;;;17.27;3.65;;;5.50;99.90;;;;;;4951440;28;20061;-62
2022/12/30 05:49:52;;;;;;;12.38;4.57;;;5.50;99.90;;;;;;4959667;28;20047;-63
2022/12/30 05:52:19;;;;;;;11.38;2.90;;;5.50;99.90;;;;;;4959988;28;20376;-62
2022/12/30 05:54:46;;;;;;;10.82;3.90;;;5.50;99.90;;;;;;4975754;28;20117;-62
2022/12/30 05:57:12;;;;;;;12.30;3.40;;;5.50;99.90;;;;;;4954900;28;20442;-62
2022/12/30 05:59:39;;;;;;;25.17;4.97;;;5.50;99.90;;;;;;4965032;28;20051;-62
2022/12/30 06:02:06;;;;;;;17.60;5.60;;;5.50;99.90;;;;;;4960060;28;20436;-62
2022/12/30 06:04:34;;;;;;;18.40;4.60;;;5.50;99.90;;;;;;4956399;28;20055;-62
2022/12/30 06:07:01;;;;;;;13.80;4.57;;;5.50;99.90;;;;;;4955801;28;20473;-62
2022/12/30 06:09:28;;;;;;;19.30;4.60;;;5.50;99.90;;;;;;4954110;28;20488;-63
2022/12/30 06:11:54;;;;;;;12.25;3.70;;;5.60;99.90;;;;;;4957397;28;20047;-62
2022/12/30 06:14:22;;;;;;;16.15;4.70;;;5.50;99.90;;;;;;4958452;28;20419;-63
2022/12/30 06:16:49;;;;;;;16.77;4.45;;;5.50;99.90;;;;;;4958254;28;20063;-63
2022/12/30 06:19:16;;;;;;;16.85;5.70;;;5.50;99.90;;;;;;4959739;28;20110;-63
2022/12/30 06:21:42;;;;;;;14.50;4.88;;;5.50;99.90;;;;;;4961494;28;20141;-62
2022/12/30 06:24:09;;;;;;;13.52;4.43;;;5.50;99.90;;;;;;4956217;28;20059;-63
2022/12/30 06:26:36;;;;;;;11.80;3.65;;;5.50;99.90;;;;;;4957794;28;20057;-63
2022/12/30 06:29:03;;;;;;;12.80;4.95;;;5.50;99.90;;;;;;4957853;28;20135;-62
2022/12/30 06:31:30;;;;;;;10.38;4.47;;;5.60;99.90;;;;;;4956396;28;20047;-64
2022/12/30 06:33:57;;;;;;;14.80;3.95;;;5.50;99.90;;;;;;4959198;28;20551;-61
2022/12/30 06:36:24;;;;;;;15.50;3.90;;;5.60;99.90;;;;;;4960721;28;20045;-62
2022/12/30 06:38:51;;;;;;;17.45;5.15;;;5.50;99.90;;;;;;4960364;28;20054;-62
2022/12/30 06:41:17;;;;;;;19.10;4.95;;;5.50;99.90;;;;;;4957829;28;20073;-62
2022/12/30 06:43:44;;;;;;;18.33;3.88;;;5.50;99.90;;;;;;4962868;28;20050;-62
2022/12/30 06:46:11;;;;;;;14.20;4.88;;;5.50;99.90;;;;;;4961818;28;20054;-63
2022/12/30 06:48:38;;;;;;;17.52;4.47;;;5.50;99.90;;;;;;4959904;28;20047;-64
2022/12/30 06:51:05;;;;;;;10.63;3.83;;;5.50;99.90;;;;;;4958852;28;20047;-62
2022/12/30 06:53:32;;;;;;;19.95;3.67;;;5.40;99.90;;;;;;4958972;28;20047;-62
2022/12/30 06:55:59;;;;;;;18.42;4.13;;;5.40;99.90;;;;;;4960050;28;20175;-62
2022/12/30 06:58:27;;;;;;;21.45;5.38;;;5.50;99.90;;;;;;4958022;28;20166;-62
2022/12/30 07:00:54;;;;;;;14.32;4.20;;;5.40;99.90;;;;;;4956204;28;20062;-62
2022/12/30 07:03:21;;;;;;;14.68;5.45;;;5.40;99.90;;;;;;4953399;28;20054;-62
2022/12/30 07:05:48;;;;;;;13.80;3.72;;;5.40;99.90;;;;;;4959444;28;20054;-62
2022/12/30 07:08:15;;;;;;;14.40;4.47;;;5.40;99.90;;;;;;4953700;28;20054;-63
2022/12/30 07:10:42;;;;;;;15.00;5.00;;;5.40;99.90;;;;;;4954731;28;20493;-63
2022/12/30 07:13:17;;;;;;;13.75;4.43;;;5.40;99.90;;;;;;4957715;28;20055;-62
2022/12/30 07:15:44;;;;;;;12.00;4.20;;;5.40;99.90;;;;;;4961671;28;20093;-62
2022/12/30 07:18:11;;;;;;;11.85;3.97;;;5.40;99.90;;;;;;4956058;28;20061;-62
2022/12/30 07:20:38;;;;;;;12.32;4.63;;;5.40;99.90;;;;;;4955129;28;20043;-62
2022/12/30 07:23:05;;;;;;;18.88;4.78;;;5.40;99.90;;;;;;4955598;28;20051;-62
2022/12/30 07:25:32;;;;;;;11.32;4.15;;;5.50;99.90;;;;;;4957162;28;20134;-62
2022/12/30 07:28:00;;;;;;;10.88;4.03;;;5.50;99.90;;;;;;4958702;28;20464;-62
2022/12/30 07:30:28;;;;;;;14.45;5.13;;;5.60;99.90;;;;;;4957319;28;20261;-63
2022/12/30 07:32:55;;;;;;;11.30;3.78;;;5.60;99.90;;;;;;4948360;28;20047;-62
2022/12/30 07:35:22;;;;;;;15.85;4.20;;;5.60;99.90;;;;;;4964277;28;20507;-62
2022/12/30 07:37:50;;;;;;;9.25;3.72;;;5.60;99.90;;;;;;4949214;28;20074;-62
2022/12/30 07:40:17;;;;;;;13.15;3.70;;;5.70;99.90;;;;;;4958111;28;20081;-62
2022/12/30 07:42:44;;;;;;;10.43;3.67;;;5.70;99.90;;;;;;4956769;28;20444;-62
2022/12/30 07:45:17;;;;;;;5.78;3.15;;;5.70;99.90;;;;;;4956553;28;20047;-61
2022/12/30 07:47:44;;;;;;;8.43;3.58;;;5.70;99.90;;;;;;4958313;28;20042;-62
2022/12/30 07:50:11;;;;;;;11.75;5.72;;;5.80;99.90;;;;;;4957231;28;20046;-64
2022/12/30 07:52:39;;;;;;;14.48;4.60;;;5.80;99.90;;;;;;4955972;28;20162;-63
2022/12/30 07:55:07;;;;;;;19.00;5.63;;;5.70;99.90;;;;;;4956510;28;20158;-63
2022/12/30 07:57:33;;;;;;;9.00;4.25;;;5.70;99.90;;;;;;4958551;28;20077;-62
2022/12/30 08:00:00;;;;;;;12.40;3.58;;;5.70;99.90;;;;;;4953523;28;20055;-64
2022/12/30 08:02:39;;;;;;;7.32;4.03;;;5.80;99.90;;;;;;4955401;28;20074;-62
2022/12/30 08:05:07;;;;;;;7.80;3.33;;;5.80;99.90;;;;;;4952961;28;20054;-62
2022/12/30 08:07:36;;;;;;;13.90;3.63;;;5.80;99.90;;;;;;4958286;28;20141;-62
2022/12/30 08:10:03;;;;;;;14.43;5.57;;;5.80;99.90;;;;;;4955545;28;20046;-62
2022/12/30 08:12:30;;;;;;;11.38;3.15;;;5.80;99.90;;;;;;4959743;28;20445;-63
2022/12/30 08:14:57;;;;;;;15.38;4.22;;;5.80;99.90;;;;;;4953801;28;20043;-63
2022/12/30 08:17:24;;;;;;;12.20;3.40;;;5.70;99.90;;;;;;4957789;28;20055;-63
2022/12/30 08:19:51;;;;;;;9.65;2.65;;;5.70;99.90;;;;;;4955189;28;20085;-63
2022/12/30 08:22:18;;;;;;;7.07;4.05;;;5.70;99.90;;;;;;4956708;28;20051;-61
2022/12/30 08:24:44;;;;;;;12.77;4.53;;;5.70;99.90;;;;;;4955426;28;20412;-62
2022/12/30 08:27:11;;;;;;;15.15;2.75;;;5.70;99.90;;;;;;4953929;28;20047;-62
2022/12/30 08:29:38;;;;;;;11.13;3.35;;;5.70;99.90;;;;;;4953535;28;20051;-63
2022/12/30 08:32:05;;;;;;;6.93;2.90;;;5.70;99.90;;;;;;4956218;28;20054;-62
2022/12/30 08:34:32;;;;;;;9.65;3.60;;;5.70;99.90;;;;;;4951356;28;20055;-62
2022/12/30 08:36:59;;;;;;;10.88;4.95;;;5.80;99.90;;;;;;4953110;28;20047;-62
2022/12/30 08:39:26;;;;;;;8.30;3.35;;;5.80;99.90;;;;;;4956902;28;20042;-62
2022/12/30 08:41:52;;;;;;;14.45;2.97;;;5.80;99.90;;;;;;4956779;28;20071;-63
2022/12/30 08:44:24;;;;;;;13.40;4.38;;;5.80;99.90;;;;;;4953962;28;20043;-62
2022/12/30 08:46:51;;;;;;;12.25;3.65;;;5.80;99.90;;;;;;4953845;28;20456;-63
2022/12/30 08:49:18;;;;;;;12.10;3.83;;;5.90;99.90;;;;;;4957157;28;20047;-63
2022/12/30 08:51:45;;;;;;;12.30;3.72;;;5.80;99.90;;;;;;4952735;28;20070;-62
2022/12/30 08:54:14;;;;;;;13.50;4.03;;;5.90;99.90;;;;;;4954637;28;20382;-62
2022/12/30 08:56:41;;;;;;;19.38;3.50;;;5.90;99.90;;;;;;4954891;28;20130;-61
2022/12/30 08:59:09;;;;;;;7.45;3.50;;;5.90;99.90;;;;;;4953141;28;20058;-62
2022/12/30 09:01:42;;;;;;;11.15;2.97;;;5.90;99.90;;;;;;4961032;28;20063;-62
2022/12/30 09:04:10;;;;;;;5.13;2.80;;;5.90;99.90;;;;;;4955610;28;20529;-62
2022/12/30 09:06:40;;;;;;;11.57;2.65;;;5.90;99.90;;;;;;4955213;28;20062;-64
2022/12/30 09:09:10;;;;;;;9.75;3.33;;;6.00;99.90;;;;;;4946623;28;20122;-62
2022/12/30 09:11:38;;;;;;;16.23;3.35;;;6.00;99.90;;;;;;4958343;28;20158;-62
2022/12/30 09:14:07;;;;;;;15.65;4.68;;;6.00;99.90;;;;;;4957602;28;20058;-62
2022/12/30 09:16:34;;;;;;;12.48;3.28;;;6.00;99.90;;;;;;4951848;28;20055;-62
2022/12/30 09:19:01;;;;;;;25.95;5.55;;;6.00;99.90;;;;;;4955889;28;20048;-63
2022/12/30 09:21:28;;;;;;;10.98;3.67;;;6.00;99.90;;;;;;4956102;28;20419;-62
2022/12/30 09:23:55;;;;;;;10.13;3.85;;;6.00;99.90;;;;;;4958665;28;20535;-64
2022/12/30 09:26:24;;;;;;;9.23;2.75;;;6.00;99.90;;;;;;4959189;28;20056;-63
2022/12/30 09:28:52;;;;;;;14.55;5.07;;;6.00;99.90;;;;;;4955760;28;20099;-62
2022/12/30 09:31:19;;;;;;;11.80;3.67;;;6.00;99.90;;;;;;4959259;28;20043;-61
2022/12/30 09:33:46;;;;;;;18.73;3.67;;;6.00;99.90;;;;;;4953723;28;20047;-63
2022/12/30 09:36:13;;;;;;;11.75;4.53;;;6.00;99.90;;;;;;4958937;28;20422;-62
2022/12/30 09:38:41;;;;;;;19.95;3.53;;;6.00;99.90;;;;;;4959165;28;20150;-62
2022/12/30 09:44:49;;;;;;;14.05;3.15;;;6.00;99.90;;;;;;4958625;28;20082;-62
2022/12/30 09:47:32;;;;;;;9.38;3.88;;;6.00;99.90;;;;;;4955441;28;20043;-62
2022/12/30 09:50:17;;;;;;;13.48;2.85;;;6.00;99.90;;;;;;4958603;28;20134;-62
2022/12/30 09:53:20;;;;;;;9.55;3.55;;;6.00;99.90;;;;;;4957376;28;20042;-63
2022/12/30 09:56:15;;;;;;;10.65;3.55;;;6.00;99.90;;;;;;4955720;28;20051;-63
2022/12/30 09:58:44;;;;;;;19.02;3.25;;;5.90;99.90;;;;;;4955367;28;20061;-62
2022/12/30 10:01:15;;;;;;;9.98;3.20;;;5.90;99.90;;;;;;4958209;28;20119;-62
2022/12/30 10:03:43;;;;;;;13.38;2.88;;;5.90;99.90;;;;;;4959902;28;20047;-62
2022/12/30 10:06:28;;;;;;;11.93;3.72;;;5.90;99.90;;;;;;4958387;28;20138;-62
2022/12/30 10:09:10;;;;;;;11.10;3.50;;;5.90;99.90;;;;;;4957264;28;20078;-62
2022/12/30 10:12:14;;;;;;;11.07;2.75;;;5.90;99.90;;;;;;4954992;28;20082;-63
2022/12/30 10:15:06;;;;;;;9.18;2.38;;;5.90;99.90;;;;;;4961651;28;20055;-62
2022/12/30 10:18:09;;;;;;;9.52;4.20;;;5.90;99.90;;;;;;4958248;28;20531;-63
2022/12/30 10:20:36;;;;;;;8.68;3.35;;;5.90;99.90;;;;;;4952686;28;20474;-62
2022/12/30 10:23:24;;;;;;;15.35;3.97;;;5.90;99.90;;;;;;4957826;28;20054;-62
2022/12/30 10:26:14;;;;;;;7.38;2.65;;;5.90;99.90;;;;;;4954530;28;20057;-61
2022/12/30 10:29:05;;;;;;;11.53;2.87;;;5.90;99.90;;;;;;4952110;28;20138;-63
2022/12/30 10:31:34;;;;;;;8.25;2.70;;;5.90;99.90;;;;;;4955341;28;20445;-61
2022/12/30 10:34:24;;;;;;;13.80;3.05;;;5.80;99.90;;;;;;4957632;28;20070;-63
2022/12/30 10:37:00;;;;;;;9.13;2.37;;;5.80;99.90;;;;;;4947854;28;22719;-62
2022/12/30 10:39:35;;;;;;;9.68;2.80;;;5.80;99.90;;;;;;4957621;28;20312;-62
2022/12/30 10:42:08;;;;;;;13.73;4.93;;;5.80;99.90;;;;;;4957348;28;20101;-63
2022/12/30 10:45:13;;;;;;;8.20;2.08;;;5.90;99.90;;;;;;4953099;28;20054;-63
2022/12/30 10:47:55;;;;;;;19.15;2.63;;;5.90;99.90;;;;;;4922021;28;20071;-62
2022/12/30 10:50:24;;;;;;;7.97;1.95;;;6.00;99.90;;;;;;4958924;28;20521;-63
2022/12/30 10:52:52;;;;;;;7.00;1.73;;;6.00;99.90;;;;;;4956072;28;20087;-62
2022/12/30 10:55:31;;;;;;;3.88;1.65;;;6.00;99.90;;;;;;4957267;28;20055;-62
2022/12/30 10:58:09;;;;;;;5.75;2.20;;;6.10;99.90;;;;;;4958034;28;20078;-61
2022/12/30 11:00:40;;;;;;;10.80;1.92;;;6.10;99.90;;;;;;4955568;28;20055;-63
2022/12/30 11:03:31;;;;;;;5.28;1.35;;;6.20;99.90;;;;;;4953350;28;20042;-62
2022/12/30 11:06:22;;;;;;;13.52;1.73;;;6.20;99.90;;;;;;4950730;28;20081;-62
2022/12/30 11:08:49;;;;;;;9.13;1.63;;;6.20;99.90;;;;;;4955835;28;20054;-62
2022/12/30 11:11:16;;;;;;;8.25;2.60;;;6.20;99.90;;;;;;4957925;28;20073;-62
2022/12/30 11:16:47;;;;;;;7.40;2.83;;;6.20;99.90;;;;;;4952056;28;20055;-62
2022/12/30 11:19:25;;;;;;;6.03;1.05;;;6.20;99.90;;;;;;4957924;28;20421;-63
2022/12/30 11:21:54;;;;;;;10.48;1.40;;;6.20;99.90;;;;;;4957973;28;20579;-63
2022/12/30 11:24:22;;;;;;;5.72;1.08;;;6.20;99.90;;;;;;4961142;28;20138;-64
2022/12/30 11:26:49;;;;;;;5.07;2.60;;;6.20;99.90;;;;;;4958226;28;20141;-63
2022/12/30 11:29:20;;;;;;;4.60;1.52;;;6.20;99.90;;;;;;4954251;28;20594;-64
2022/12/30 11:31:51;;;;;;;3.63;1.27;;;6.20;99.90;;;;;;4954790;28;20054;-62
2022/12/30 11:34:33;;;;;;;4.68;1.52;;;6.20;99.90;;;;;;4961486;28;20051;-61
2022/12/30 11:37:24;;;;;;;2.70;0.88;;;6.20;99.90;;;;;;4956395;28;20047;-62
2022/12/30 11:39:51;;;;;;;5.50;2.45;;;6.20;99.90;;;;;;4962806;28;20054;-62
2022/12/30 11:42:30;;;;;;;8.02;1.48;;;6.20;99.90;;;;;;4957281;28;20078;-62
2022/12/30 11:45:18;;;;;;;3.03;1.20;;;6.20;99.90;;;;;;4955170;28;20314;-62
2022/12/30 11:47:46;;;;;;;4.13;1.38;;;6.20;99.90;;;;;;4952221;28;20125;-62
2022/12/30 11:50:19;;;;;;;7.68;1.52;;;6.20;99.90;;;;;;4960436;28;20583;-63
2022/12/30 11:53:01;;;;;;;5.75;1.65;;;6.20;99.90;;;;;;4953366;28;20154;-64
2022/12/30 11:55:30;;;;;;;6.80;1.23;;;6.20;99.90;;;;;;4956274;28;20475;-62
2022/12/30 11:58:00;;;;;;;5.00;2.03;;;6.20;99.90;;;;;;4960150;28;20134;-63
2022/12/30 12:00:37;;;;;;;3.83;1.33;;;6.20;99.90;;;;;;4956486;28;20508;-63
2022/12/30 12:03:15;;;;;;;5.07;1.60;;;6.10;99.90;;;;;;4954325;28;20130;-63
2022/12/30 12:05:44;;;;;;;6.25;1.17;;;6.20;99.90;;;;;;4959700;28;20043;-62
2022/12/30 12:08:33;;;;;;;5.18;1.42;;;6.20;99.90;;;;;;4949669;28;20039;-63
2022/12/30 12:11:29;;;;;;;3.30;0.82;;;6.30;99.90;;;;;;4951833;28;20440;-62
2022/12/30 12:14:22;;;;;;;6.43;1.52;;;6.30;99.90;;;;;;4957330;28;20141;-63
2022/12/30 12:16:58;;;;;;;3.78;1.63;;;6.30;99.90;;;;;;4945617;28;20063;-61
2022/12/30 12:19:55;;;;;;;6.15;1.50;;;6.30;99.90;;;;;;4950683;28;20154;-63
2022/12/30 12:22:30;;;;;;;6.32;1.50;;;6.20;99.90;;;;;;4949582;28;20552;-62
2022/12/30 12:25:05;;;;;;;3.33;1.50;;;6.20;99.90;;;;;;4950011;28;20153;-62
2022/12/30 12:27:32;;;;;;;2.38;1.02;;;6.10;99.90;;;;;;4952258;28;20374;-62
2022/12/30 12:29:58;;;;;;;4.72;1.20;;;6.10;99.90;;;;;;4952068;28;20059;-64
2022/12/30 12:32:37;;;;;;;4.47;1.77;;;6.10;99.90;;;;;;4950339;28;20054;-62
2022/12/30 12:35:17;;;;;;;6.07;1.33;;;6.10;99.90;;;;;;4947866;28;20452;-63
2022/12/30 12:37:58;;;;;;;4.70;1.33;;;6.20;99.90;;;;;;4950661;28;20071;-63
2022/12/30 12:40:35;;;;;;;6.88;2.08;;;6.10;99.90;;;;;;4961683;28;20077;-63
2022/12/30 12:43:17;;;;;;;7.97;1.60;;;6.10;99.90;;;;;;4951712;28;20632;-62
2022/12/30 12:46:15;;;;;;;4.38;1.27;;;6.10;99.90;;;;;;4952375;28;20047;-62
2022/12/30 12:48:54;;;;;;;6.13;1.23;;;6.10;99.90;;;;;;4953063;28;20082;-63
2022/12/30 12:51:54;;;;;;;2.08;0.85;;;6.00;99.90;;;;;;4952628;28;20789;-61
2022/12/30 12:54:24;;;;;;;3.25;0.82;;;6.00;99.90;;;;;;4952848;28;20178;-61
2022/12/30 12:57:20;;;;;;;6.28;1.75;;;5.90;99.90;;;;;;4953691;28;20043;-62
2022/12/30 12:59:55;;;;;;;5.57;1.25;;;5.90;99.90;;;;;;4962533;28;20043;-61
2022/12/30 13:02:43;;;;;;;4.78;1.80;;;6.00;99.90;;;;;;4958682;28;20341;-61
2022/12/30 13:05:37;;;;;;;5.35;1.73;;;6.00;99.90;;;;;;4960715;28;20058;-62
2022/12/30 13:08:26;;;;;;;2.70;0.88;;;6.00;99.90;;;;;;4961175;28;20125;-63
2022/12/30 13:11:30;;;;;;;3.45;0.98;;;6.00;99.90;;;;;;4958263;28;20393;-62
2022/12/30 13:14:39;;;;;;;6.00;1.10;;;6.00;99.90;;;;;;4959355;28;20055;-62
2022/12/30 13:17:23;;;;;;;7.80;1.98;;;6.00;99.90;;;;;;4955527;28;20107;-62
2022/12/30 13:19:55;;;;;;;3.42;1.88;;;6.00;99.90;;;;;;4955101;28;20150;-62
2022/12/30 13:22:33;;;;;;;5.63;2.13;;;6.00;99.90;;;;;;4961319;28;20142;-62
2022/12/30 13:25:13;;;;;;;2.72;1.17;;;6.00;99.90;;;;;;4950771;28;20058;-61
2022/12/30 13:27:52;;;;;;;3.40;1.48;;;6.00;99.90;;;;;;4968418;28;20074;-63
2022/12/30 13:30:21;;;;;;;2.47;0.75;;;6.00;99.90;;;;;;4959371;28;20066;-62
2022/12/30 13:33:06;;;;;;;5.85;2.08;;;6.00;99.90;;;;;;4961216;28;20063;-62
2022/12/30 13:35:52;;;;;;;4.28;1.00;;;6.00;99.90;;;;;;4946655;28;20051;-62
2022/12/30 13:38:48;;;;;;;4.75;1.55;;;6.00;99.90;;;;;;4952184;28;20497;-64
2022/12/30 13:41:21;;;;;;;3.97;1.65;;;6.00;99.90;;;;;;4957155;28;20043;-62
2022/12/30 13:43:59;;;;;;;2.53;1.25;;;6.00;99.90;;;;;;4961222;28;20070;-64
2022/12/30 13:46:29;;;;;;;4.85;0.82;;;6.00;99.90;;;;;;4956441;28;20110;-61
2022/12/30 13:49:00;;;;;;;1.95;1.20;;;6.00;99.90;;;;;;4960132;28;20057;-62
2022/12/30 13:51:29;;;;;;;1.05;0.82;;;6.00;99.90;;;;;;4961397;28;20483;-62
2022/12/30 13:54:16;;;;;;;7.10;1.55;;;6.10;99.90;;;;;;4960987;28;20497;-65
2022/12/30 13:56:49;;;;;;;6.70;1.52;;;6.10;99.90;;;;;;4956486;28;20420;-62
2022/12/30 13:59:34;;;;;;;6.15;1.00;;;6.10;99.90;;;;;;4959829;28;20141;-64
2022/12/30 14:02:19;;;;;;;3.10;0.70;;;6.10;99.90;;;;;;4958304;28;20110;-63
2022/12/30 14:04:48;;;;;;;2.25;0.90;;;6.10;99.90;;;;;;4955262;28;20146;-62
2022/12/30 14:07:41;;;;;;;4.15;1.30;;;6.10;99.90;;;;;;4957406;28;20046;-61
2022/12/30 14:10:20;;;;;;;1.95;0.90;;;6.10;99.90;;;;;;4958832;28;20479;-62
2022/12/30 14:13:16;;;;;;;1.95;0.75;;;6.10;99.90;;;;;;4956005;28;20050;-62
2022/12/30 14:15:45;;;;;;;5.53;0.85;;;6.10;99.90;;;;;;4951140;28;20227;-62
2022/12/30 14:18:36;;;;;;;7.35;1.35;;;6.10;99.90;;;;;;4965827;28;20528;-62